Goetzville, MI (49736)

9:56 PM EST on January 20, 2017 (GMT -0500)
No. 8 Island | | Change Station
Active Advisory: Dense Fog Advisory

Elev 587 ft 45.98 °N, 84.31 °W | Updated 3 seconds ago

Ice Pellets
Ice Pellets
33.5 °F
Feels Like 29 °F
N
4.8
Wind Variable Wind from East
Gusts 7.3 mph

Today
High -- | Low -- °F
--% Chance of Precip.
Yesterday
High -- | Low -- °F
Precip. -- in
Pressure 29.73 in
Visibility 1.2 miles
Clouds Overcast 100 ft
Windchill 29 °F
Dew Point 33 °F
Humidity 97%
Rainfall 0.00 in
Snow Depth Not available.
8:10 AM 5:24 PM
Last Quarter, 39% visible
METAR KDRM 210235Z AUTO 00000KT 1 1/4SM -SN OVC001 00/00 A2973 RMK AO2 T00000000
Pressure 29.73 in
Visibility 1.2 miles
Clouds Overcast 100 ft
Windchill 29 °F
Dew Point 33 °F
Humidity 97%
Rainfall 0.00 in
Snow Depth Not available.
8:10 AM 5:24 PM
Last Quarter, 39% visible
METAR KDRM 210235Z AUTO 00000KT 1 1/4SM -SN OVC001 00/00 A2973 RMK AO2 T00000000

Get Your Daily Forecast Email!

Thanks for signing up!

Be on the lookout for a verification email in your inbox.

You'll start receiving the daily forecast at 8 AM.

×

10-Day Weather Forecast

Almanac

Astronomy

Jan. 20, 2017 Rise Set
Actual Time
Civil Twilight
Nautical Twilight
Astronomical Twilight
Moon
Length of Visible Light
Length of Day
Tomorrow will be .
, % of the Moon is Illuminated

Today's Extremes

State Highs State Lows

Community

WunderPhotos

Upload Photos

1,962,540 photos uploaded!

WunderBlog® & News

Nearby

Air Quality

  Air Quality AQ Index Pollutant
Not available.

Snow Depth

Station Depth Elevation

Earthquake Activity

City Distance Mag. Time & Date
Minimum magnitude displayed is 2.5.

Coastal Water Temperatures

Place Temperature

Stations

Nearby Weather Stations

Station Location Temp. Windchill Dew Point Humidity Wind Precip. Elev Updated Type
                   

Watches & Warnings

Dense Fog Advisory
Issued: 4:30 PM EST Jan. 20, 2017 – National Weather Service

... Dense fog advisory in effect from 10 PM this evening to noon
EST Saturday...

The National Weather Service in Gaylord has issued a dense fog
advisory... which is in effect from 10 PM this evening to noon EST
Saturday.

* Visibility... fog will develop again tonight with visibilities
of one quarter of a mile or less.

* Impacts... low visibilities will lead to difficult driving
conditions. Also... temperatures dropping back to around freezing
tonight may allow light icing on untreated surfaces.

Precautionary/preparedness actions...

A dense fog advisory means visibilities will frequently be
reduced to less than one quarter mile. If driving... slow down...
use your headlights... and leave plenty of distance ahead of you.